Time;durP1;ratioP1;P1;durP2;ratioP2;P2;SDS_P1;SDS_P2;PMS_P1;PMS_P2;Temp;Humidity;BMP_temperature;BMP_pressure;BME280_temperature;BME280_humidity;BME280_pressure;Samples;Min_cycle;Max_cycle;Signal;HPM_P1;HPM_P2
2022/07/03 00:00:17;;;;;;;3.93;3.60;;;21.50;99.90;;;;;;5124028;27;20476;-63
2022/07/03 00:02:47;;;;;;;3.67;3.37;;;21.40;99.90;;;;;;5088185;28;20447;-63
2022/07/03 00:05:19;;;;;;;3.67;3.37;;;21.40;99.90;;;;;;5102859;28;20527;-63
2022/07/03 00:07:49;;;;;;;3.40;3.10;;;21.40;99.90;;;;;;5104584;28;20472;-63
2022/07/03 00:10:20;;;;;;;3.80;3.50;;;21.70;99.90;;;;;;5100146;28;20460;-63
2022/07/03 00:12:53;;;;;;;3.93;3.63;;;22.00;99.90;;;;;;5124253;28;20460;-63
2022/07/03 00:15:23;;;;;;;3.40;3.10;;;22.30;99.90;;;;;;5123958;28;20911;-63
2022/07/03 00:17:54;;;;;;;3.70;3.40;;;22.50;99.90;;;;;;5119354;28;20442;-63
2022/07/03 00:20:29;;;;;;;4.33;3.93;;;22.40;99.90;;;;;;5103905;28;20461;-63
2022/07/03 00:23:04;;;;;;;3.77;3.20;;;22.50;99.90;;;;;;5117133;28;20449;-62
2022/07/03 00:25:35;;;;;;;3.47;3.20;;;22.60;99.90;;;;;;5122714;28;20944;-63
2022/07/03 00:28:08;;;;;;;3.50;3.20;;;22.50;99.90;;;;;;5109721;28;20806;-63
2022/07/03 00:30:40;;;;;;;3.83;3.30;;;22.40;99.90;;;;;;5113825;28;20481;-63
2022/07/03 00:33:11;;;;;;;3.80;3.50;;;22.30;99.90;;;;;;5109998;28;20457;-63
2022/07/03 00:35:43;;;;;;;3.70;3.40;;;22.40;99.90;;;;;;5103795;28;20485;-63
2022/07/03 00:38:14;;;;;;;2.60;2.40;;;22.50;99.90;;;;;;5122556;28;20449;-63
2022/07/03 00:40:46;;;;;;;2.80;2.60;;;22.60;99.90;;;;;;5121873;28;20467;-63
2022/07/03 00:43:19;;;;;;;2.90;2.70;;;22.80;99.90;;;;;;5106351;28;20551;-63
2022/07/03 00:45:51;;;;;;;3.27;3.07;;;22.90;99.90;;;;;;5103081;28;20485;-63
2022/07/03 00:48:22;;;;;;;3.53;3.23;;;23.10;99.90;;;;;;5103537;28;20447;-63
2022/07/03 00:50:53;;;;;;;3.17;2.87;;;23.20;99.90;;;;;;5112186;28;20494;-63
2022/07/03 00:53:29;;;;;;;2.90;2.63;;;23.10;99.20;;;;;;5122227;28;20522;-63
2022/07/03 00:56:01;;;;;;;3.10;2.90;;;23.00;99.50;;;;;;5102987;28;20489;-63
2022/07/03 00:58:35;;;;;;;2.80;2.60;;;23.00;99.60;;;;;;5103057;28;20790;-63
2022/07/03 01:01:06;;;;;;;2.67;2.47;;;22.90;99.80;;;;;;5114160;28;20449;-63
2022/07/03 01:03:41;;;;;;;3.37;3.07;;;22.90;99.90;;;;;;5123771;28;20547;-63
2022/07/03 01:06:15;;;;;;;3.07;2.87;;;23.00;99.30;;;;;;5111721;28;20448;-63
2022/07/03 01:08:51;;;;;;;3.40;3.10;;;22.90;99.20;;;;;;5106271;28;20894;-63
2022/07/03 01:11:26;;;;;;;2.77;2.57;;;23.00;99.90;;;;;;5122480;28;20496;-63
2022/07/03 01:14:10;;;;;;;2.67;2.47;;;23.10;99.90;;;;;;5122563;28;21373;-63
2022/07/03 01:16:50;;;;;;;3.13;2.87;;;23.20;99.60;;;;;;5115101;28;20476;-63
2022/07/03 01:19:37;;;;;;;2.83;2.40;;;23.00;99.20;;;;;;5104989;28;20446;-63
2022/07/03 01:22:38;;;;;;;3.30;3.00;;;23.00;99.80;;;;;;5095139;28;20525;-63
2022/07/03 01:25:24;;;;;;;2.87;2.67;;;23.10;99.60;;;;;;5085766;28;20456;-63
2022/07/03 01:28:08;;;;;;;3.07;2.87;;;22.90;99.10;;;;;;5103096;28;20438;-63
2022/07/03 01:30:40;;;;;;;2.10;1.90;;;22.90;99.90;;;;;;5112951;28;20498;-62
2022/07/03 01:33:14;;;;;;;3.30;3.00;;;23.00;99.70;;;;;;5102356;28;20482;-62
2022/07/03 01:35:53;;;;;;;3.17;2.97;;;23.00;99.80;;;;;;5101293;28;20469;-63
2022/07/03 01:38:24;;;;;;;2.70;2.50;;;23.00;99.80;;;;;;5117839;28;20459;-63
2022/07/03 01:40:57;;;;;;;2.20;2.10;;;23.00;99.60;;;;;;5122064;28;20972;-63
2022/07/03 01:43:32;;;;;;;2.73;2.53;;;22.90;99.90;;;;;;5094277;28;20465;-63
2022/07/03 01:46:04;;;;;;;2.20;2.00;;;23.10;99.90;;;;;;5113093;28;20776;-63
2022/07/03 01:48:35;;;;;;;2.83;2.63;;;23.20;99.20;;;;;;5121916;28;20457;-63
2022/07/03 01:51:07;;;;;;;2.90;2.70;;;23.10;99.20;;;;;;5121050;28;20496;-63
2022/07/03 01:53:43;;;;;;;2.50;2.30;;;22.90;99.40;;;;;;5120104;28;21075;-63
2022/07/03 01:56:15;;;;;;;2.43;2.23;;;22.80;99.80;;;;;;5102033;28;20446;-63
2022/07/03 01:58:48;;;;;;;3.70;3.00;;;22.70;99.90;;;;;;5118751;28;20448;-63
2022/07/03 02:01:23;;;;;;;2.80;2.40;;;22.70;99.90;;;;;;5116514;28;20515;-63
2022/07/03 02:04:04;;;;;;;2.83;2.57;;;22.60;99.90;;;;;;5085690;28;20462;-63
2022/07/03 02:06:43;;;;;;;3.03;2.83;;;22.50;99.90;;;;;;5113778;28;20453;-63
2022/07/03 02:09:16;;;;;;;2.90;2.70;;;22.40;99.90;;;;;;5101902;28;20450;-63
2022/07/03 02:11:54;;;;;;;2.83;2.63;;;22.40;99.90;;;;;;5101647;28;20489;-63
2022/07/03 02:14:33;;;;;;;2.27;2.10;;;22.30;99.90;;;;;;5102138;28;20497;-63
2022/07/03 02:17:15;;;;;;;2.30;2.10;;;22.20;99.90;;;;;;5106798;28;20998;-63
2022/07/03 02:19:57;;;;;;;2.43;2.23;;;22.10;99.90;;;;;;5103450;28;20446;-62
2022/07/03 02:22:32;;;;;;;2.40;2.30;;;22.20;99.90;;;;;;5102183;28;20457;-63
2022/07/03 02:25:07;;;;;;;1.87;1.77;;;22.10;99.90;;;;;;5112930;28;20449;-63
2022/07/03 02:27:45;;;;;;;2.67;2.47;;;22.20;99.90;;;;;;5107651;28;20458;-63
2022/07/03 02:30:19;;;;;;;3.93;2.50;;;22.20;99.90;;;;;;5089463;28;20466;-62
2022/07/03 02:32:52;;;;;;;2.83;2.40;;;22.10;99.90;;;;;;5121661;28;20492;-63
2022/07/03 02:35:28;;;;;;;2.60;2.40;;;21.90;99.90;;;;;;5104975;28;20454;-63
2022/07/03 02:38:05;;;;;;;2.40;2.20;;;21.90;99.90;;;;;;5105994;28;20448;-64
2022/07/03 02:40:41;;;;;;;2.37;2.17;;;21.90;99.90;;;;;;5108681;28;20446;-63
2022/07/03 02:43:23;;;;;;;2.40;2.20;;;21.90;99.90;;;;;;5103139;28;20490;-64
2022/07/03 02:46:48;;;;;;;2.43;2.07;;;21.80;99.90;;;;;;5111503;28;20533;-63
2022/07/03 02:48:59;;;;;;;2.80;2.60;;;21.60;99.90;;;;;;5110832;28;20446;-64
2022/07/03 02:51:37;;;;;;;2.57;2.37;;;21.50;99.90;;;;;;5113782;28;20480;-64
2022/07/03 02:54:15;;;;;;;2.33;2.13;;;21.50;99.90;;;;;;5125767;28;20576;-64
2022/07/03 02:56:56;;;;;;;2.67;2.40;;;21.50;99.90;;;;;;5125319;28;20454;-64
2022/07/03 02:59:41;;;;;;;2.10;1.90;;;21.50;99.90;;;;;;5124483;28;20552;-64
2022/07/03 03:02:21;;;;;;;2.50;2.30;;;21.40;99.90;;;;;;5117401;28;20482;-64
2022/07/03 03:04:59;;;;;;;1.70;1.60;;;21.30;99.90;;;;;;5125289;28;20440;-64
2022/07/03 03:07:36;;;;;;;2.87;2.63;;;21.10;99.90;;;;;;5107027;28;20454;-64
2022/07/03 03:10:09;;;;;;;2.60;2.40;;;21.00;99.90;;;;;;5104430;28;20514;-64
2022/07/03 03:12:47;;;;;;;2.87;2.50;;;21.00;99.90;;;;;;5124481;28;20501;-64
2022/07/03 03:15:21;;;;;;;2.77;2.50;;;20.90;99.90;;;;;;5124668;28;20456;-64
2022/07/03 03:17:57;;;;;;;2.17;1.87;;;20.90;99.90;;;;;;5088691;28;20435;-64
2022/07/03 03:20:31;;;;;;;3.00;2.60;;;21.00;99.90;;;;;;5114263;28;20551;-64
2022/07/03 03:23:13;;;;;;;3.30;2.40;;;20.90;99.90;;;;;;5125378;28;20462;-64
2022/07/03 03:25:44;;;;;;;2.77;2.47;;;20.80;99.90;;;;;;5108048;28;20446;-64
2022/07/03 03:28:15;;;;;;;2.10;1.90;;;20.80;99.90;;;;;;5104916;28;20455;-64
2022/07/03 03:30:46;;;;;;;2.63;2.43;;;20.70;99.90;;;;;;5105691;28;20929;-64
2022/07/03 03:33:20;;;;;;;2.10;1.90;;;20.60;99.90;;;;;;5104750;28;20579;-64
2022/07/03 03:35:51;;;;;;;2.53;2.33;;;20.60;99.90;;;;;;5104074;28;20447;-64
2022/07/03 03:38:22;;;;;;;2.50;2.03;;;20.50;99.90;;;;;;5105614;28;20490;-64
2022/07/03 03:40:54;;;;;;;2.37;2.17;;;20.50;99.90;;;;;;5113317;28;20828;-64
2022/07/03 03:43:24;;;;;;;1.97;1.80;;;20.30;99.90;;;;;;5118028;28;20442;-64
2022/07/03 03:45:55;;;;;;;1.97;1.50;;;20.20;99.90;;;;;;5123738;28;20421;-64
2022/07/03 03:48:29;;;;;;;1.80;1.60;;;20.10;99.90;;;;;;5118761;28;20462;-64
2022/07/03 03:51:00;;;;;;;2.10;1.90;;;20.00;99.90;;;;;;5113337;28;20421;-64
2022/07/03 03:53:32;;;;;;;1.37;1.27;;;20.00;99.90;;;;;;5107954;28;20514;-64
2022/07/03 03:56:04;;;;;;;1.97;1.77;;;19.90;99.90;;;;;;5104380;28;20466;-64
2022/07/03 03:58:37;;;;;;;2.20;2.00;;;19.90;99.90;;;;;;5104593;28;20446;-64
2022/07/03 04:01:10;;;;;;;2.10;1.90;;;19.80;99.90;;;;;;5108516;28;20455;-64
2022/07/03 04:03:42;;;;;;;2.00;1.77;;;19.70;99.90;;;;;;5104524;28;20515;-64
2022/07/03 04:06:13;;;;;;;1.90;1.70;;;19.60;99.90;;;;;;5103614;28;20447;-64
2022/07/03 04:08:44;;;;;;;2.07;1.87;;;19.40;99.90;;;;;;5103921;28;20532;-64
2022/07/03 04:11:14;;;;;;;1.80;1.70;;;19.30;99.90;;;;;;5114810;28;20454;-63
2022/07/03 04:13:46;;;;;;;2.23;2.07;;;19.20;99.90;;;;;;5124121;28;20466;-64
2022/07/03 04:16:17;;;;;;;4.30;1.80;;;18.90;99.90;;;;;;5119121;27;20508;-64
2022/07/03 04:18:49;;;;;;;2.17;1.57;;;18.90;99.90;;;;;;5121549;28;20797;-64
2022/07/03 04:21:20;;;;;;;2.33;1.60;;;18.70;99.90;;;;;;5119641;28;20423;-64
2022/07/03 04:23:51;;;;;;;1.63;1.53;;;18.60;99.90;;;;;;5107464;28;20454;-64
2022/07/03 04:26:21;;;;;;;2.20;1.93;;;18.50;99.90;;;;;;5116412;28;20456;-64
2022/07/03 04:28:52;;;;;;;4.73;1.60;;;18.40;99.90;;;;;;5123870;28;20428;-64
2022/07/03 04:31:23;;;;;;;1.90;1.80;;;18.40;99.90;;;;;;5110161;28;20424;-64
2022/07/03 04:33:56;;;;;;;1.90;1.73;;;18.30;99.90;;;;;;5123524;28;20485;-64
2022/07/03 04:36:26;;;;;;;3.37;1.97;;;18.30;99.90;;;;;;5121821;28;20442;-64
2022/07/03 04:38:57;;;;;;;1.97;1.83;;;18.20;99.90;;;;;;5123490;28;20432;-64
2022/07/03 04:41:29;;;;;;;1.93;1.83;;;18.20;99.90;;;;;;5114755;28;20454;-64
2022/07/03 04:44:00;;;;;;;1.90;1.73;;;18.00;99.90;;;;;;5093977;28;20485;-64
2022/07/03 04:46:31;;;;;;;1.70;1.60;;;18.00;99.90;;;;;;5110161;27;20425;-64
2022/07/03 04:49:03;;;;;;;1.57;1.47;;;18.00;99.90;;;;;;5103359;28;20439;-64
2022/07/03 04:51:34;;;;;;;1.90;1.70;;;17.90;99.90;;;;;;5111164;28;20457;-64
2022/07/03 04:54:05;;;;;;;2.27;1.87;;;17.90;99.90;;;;;;5113045;27;20508;-64
2022/07/03 04:56:36;;;;;;;2.17;1.67;;;17.80;99.90;;;;;;5123239;28;20454;-64
2022/07/03 04:59:07;;;;;;;2.20;1.80;;;17.80;99.90;;;;;;5119195;28;20445;-64
2022/07/03 05:01:37;;;;;;;2.70;1.77;;;17.80;99.90;;;;;;5112923;28;20457;-64
2022/07/03 05:04:10;;;;;;;2.17;1.97;;;17.80;99.90;;;;;;5118550;28;20513;-65
2022/07/03 05:06:41;;;;;;;1.83;1.50;;;17.80;99.90;;;;;;5102274;28;20421;-64
2022/07/03 05:09:12;;;;;;;2.60;1.80;;;17.80;99.90;;;;;;5103127;28;20457;-64
2022/07/03 05:11:42;;;;;;;2.63;2.33;;;17.90;99.90;;;;;;5111719;28;20432;-63
2022/07/03 05:14:13;;;;;;;2.70;2.10;;;17.90;99.90;;;;;;5107708;28;20469;-64
2022/07/03 05:16:44;;;;;;;2.37;2.17;;;17.90;99.90;;;;;;5115945;28;20469;-64
2022/07/03 05:19:17;;;;;;;3.40;1.83;;;17.90;99.90;;;;;;5103723;28;20425;-64
2022/07/03 05:21:47;;;;;;;2.60;2.10;;;17.90;99.90;;;;;;5110333;28;20435;-64
2022/07/03 05:24:18;;;;;;;2.17;1.97;;;17.90;99.90;;;;;;5092377;28;20453;-64
2022/07/03 05:26:49;;;;;;;1.87;1.77;;;17.90;99.90;;;;;;5115100;28;20485;-64
2022/07/03 05:29:20;;;;;;;2.13;1.93;;;17.80;99.90;;;;;;5103270;28;20473;-64
2022/07/03 05:31:50;;;;;;;2.33;1.83;;;17.80;99.90;;;;;;5111953;28;20424;-67
2022/07/03 05:34:23;;;;;;;2.57;2.00;;;17.80;99.90;;;;;;5089406;28;20492;-64
2022/07/03 05:36:53;;;;;;;1.70;1.60;;;17.70;99.90;;;;;;5122052;28;20428;-64
2022/07/03 05:39:33;;;;;;;2.27;2.03;;;17.70;99.90;;;;;;5123082;28;20460;-64
2022/07/03 05:42:04;;;;;;;2.60;2.10;;;17.70;99.90;;;;;;5105848;28;20475;-64
2022/07/03 05:44:35;;;;;;;2.47;2.07;;;17.80;99.90;;;;;;5102907;28;20477;-64
2022/07/03 05:47:06;;;;;;;2.90;2.53;;;17.80;99.90;;;;;;5102338;28;20435;-64
2022/07/03 05:49:38;;;;;;;1.77;1.67;;;17.80;99.90;;;;;;5103046;28;20425;-64
2022/07/03 05:52:10;;;;;;;2.03;1.90;;;17.70;99.90;;;;;;5113464;28;20479;-64
2022/07/03 05:54:40;;;;;;;1.60;1.43;;;17.70;99.90;;;;;;5116600;28;20464;-64
2022/07/03 05:57:11;;;;;;;1.60;1.50;;;17.70;99.90;;;;;;5116749;28;20436;-64
2022/07/03 05:59:42;;;;;;;2.37;1.93;;;17.70;99.90;;;;;;5122738;28;20435;-64
2022/07/03 06:02:13;;;;;;;2.27;2.00;;;17.70;99.90;;;;;;5109856;28;20425;-64
2022/07/03 06:04:46;;;;;;;2.27;2.07;;;17.60;99.90;;;;;;5104146;28;20450;-64
2022/07/03 06:07:17;;;;;;;2.47;2.20;;;17.60;99.90;;;;;;5094225;28;20512;-64
2022/07/03 06:09:48;;;;;;;2.03;1.83;;;17.60;99.90;;;;;;5122012;28;20495;-64
2022/07/03 06:12:19;;;;;;;2.77;2.00;;;17.60;99.90;;;;;;5113131;28;20425;-64
2022/07/03 06:14:50;;;;;;;2.10;1.57;;;17.50;99.90;;;;;;5107006;28;20481;-64
2022/07/03 06:17:20;;;;;;;1.77;1.60;;;17.40;99.90;;;;;;5090225;28;20444;-64
2022/07/03 06:19:53;;;;;;;2.00;1.90;;;17.40;99.90;;;;;;5108150;28;20437;-64
2022/07/03 06:22:23;;;;;;;2.20;2.00;;;17.40;99.90;;;;;;5117869;28;20420;-64
2022/07/03 06:24:54;;;;;;;2.33;2.13;;;17.30;99.90;;;;;;5126756;28;20446;-63
2022/07/03 06:27:25;;;;;;;2.73;2.53;;;17.30;99.90;;;;;;5093632;28;20505;-63
2022/07/03 06:29:56;;;;;;;2.10;1.90;;;17.20;99.90;;;;;;5117946;28;20457;-64
2022/07/03 06:32:27;;;;;;;3.00;2.80;;;17.10;99.90;;;;;;5118910;28;20473;-64
2022/07/03 06:34:59;;;;;;;3.40;2.60;;;17.00;99.90;;;;;;5112291;28;20512;-64
2022/07/03 06:37:30;;;;;;;2.77;2.23;;;17.00;99.90;;;;;;5119376;28;20458;-64
2022/07/03 06:40:01;;;;;;;2.47;2.23;;;16.90;99.90;;;;;;5126299;28;20432;-64
2022/07/03 06:42:32;;;;;;;3.37;2.20;;;16.90;99.90;;;;;;5111704;28;20441;-64
2022/07/03 06:45:02;;;;;;;2.27;2.07;;;16.90;99.90;;;;;;5114443;28;20457;-64
2022/07/03 06:47:38;;;;;;;3.30;2.57;;;17.00;99.90;;;;;;5090059;28;20466;-64
2022/07/03 06:50:11;;;;;;;2.37;1.77;;;17.00;99.90;;;;;;5105256;28;20503;-64
2022/07/03 06:52:41;;;;;;;2.13;1.97;;;16.90;99.90;;;;;;5105697;28;20429;-64
2022/07/03 06:55:12;;;;;;;3.97;2.07;;;16.90;99.90;;;;;;5117867;28;20481;-64
2022/07/03 06:57:43;;;;;;;2.33;1.70;;;16.90;99.90;;;;;;5109580;28;20453;-64
2022/07/03 07:00:15;;;;;;;2.53;2.20;;;16.90;99.90;;;;;;5115110;28;20428;-64
2022/07/03 07:02:46;;;;;;;2.90;2.00;;;17.00;99.90;;;;;;5106677;28;20437;-64
2022/07/03 07:05:19;;;;;;;2.20;2.00;;;16.90;99.90;;;;;;5105773;28;20447;-64
2022/07/03 07:07:49;;;;;;;2.60;2.33;;;16.90;99.90;;;;;;5105213;28;20450;-64
2022/07/03 07:10:20;;;;;;;2.90;2.40;;;16.90;99.90;;;;;;5105351;28;20476;-64
2022/07/03 07:12:51;;;;;;;2.97;2.50;;;16.90;99.90;;;;;;5105280;28;20455;-64
2022/07/03 07:15:22;;;;;;;2.97;2.70;;;17.00;99.90;;;;;;5106272;28;20489;-64
2022/07/03 07:17:53;;;;;;;3.47;2.60;;;17.00;99.90;;;;;;5119800;28;20446;-64
2022/07/03 07:20:25;;;;;;;2.70;2.37;;;17.00;99.90;;;;;;5124078;28;20519;-64
2022/07/03 07:22:56;;;;;;;2.23;2.07;;;16.90;99.90;;;;;;5124963;28;20454;-64
2022/07/03 07:25:27;;;;;;;3.23;2.93;;;16.90;99.90;;;;;;5111470;28;20450;-64
2022/07/03 07:27:57;;;;;;;3.20;2.90;;;16.90;99.90;;;;;;5106236;28;20455;-62
2022/07/03 07:30:28;;;;;;;3.67;2.60;;;16.80;99.90;;;;;;5123114;28;20468;-63
2022/07/03 07:32:59;;;;;;;3.80;3.27;;;16.80;99.90;;;;;;5116909;28;20508;-62
2022/07/03 07:35:31;;;;;;;2.47;2.27;;;16.80;99.90;;;;;;5116899;28;20482;-62
2022/07/03 07:38:02;;;;;;;2.93;2.33;;;16.80;99.90;;;;;;5124903;28;20450;-62
2022/07/03 07:40:37;;;;;;;3.17;2.87;;;16.80;99.90;;;;;;5124170;28;20468;-62
2022/07/03 07:43:08;;;;;;;2.63;2.43;;;16.70;99.90;;;;;;5104097;28;20959;-62
2022/07/03 07:45:39;;;;;;;3.90;3.07;;;16.70;99.90;;;;;;5118601;28;20764;-62
2022/07/03 07:48:10;;;;;;;3.83;2.60;;;16.70;99.90;;;;;;5125251;28;20510;-62
2022/07/03 07:50:42;;;;;;;3.50;2.70;;;16.60;99.90;;;;;;5123322;28;20449;-62
2022/07/03 07:53:13;;;;;;;3.07;2.63;;;16.50;99.90;;;;;;5124629;28;20529;-62
2022/07/03 07:55:44;;;;;;;3.57;3.00;;;16.50;99.90;;;;;;5113206;28;20482;-63
2022/07/03 07:58:15;;;;;;;3.90;3.00;;;16.40;99.90;;;;;;5115702;28;20450;-62
2022/07/03 08:06:20;;;;;;;3.90;2.73;;;16.20;99.90;;;;;;5104340;28;20478;-62
2022/07/03 08:08:50;;;;;;;3.00;2.70;;;16.10;99.90;;;;;;5118972;28;20473;-62
2022/07/03 08:11:21;;;;;;;4.53;2.63;;;16.00;99.90;;;;;;5123762;28;20428;-62
2022/07/03 08:13:52;;;;;;;3.77;2.90;;;16.00;99.90;;;;;;5123657;28;20457;-62
2022/07/03 08:16:23;;;;;;;4.73;2.80;;;16.10;99.90;;;;;;5122963;28;20450;-62
2022/07/03 08:18:54;;;;;;;2.90;2.47;;;16.10;99.90;;;;;;5124556;28;20446;-65
2022/07/03 08:21:26;;;;;;;4.07;2.67;;;16.10;99.90;;;;;;5121863;28;20438;-62
2022/07/03 08:23:57;;;;;;;3.73;3.03;;;16.00;99.90;;;;;;5123972;28;20457;-64
2022/07/03 08:26:28;;;;;;;2.63;2.37;;;16.00;99.90;;;;;;5123221;28;20436;-64
2022/07/03 08:28:58;;;;;;;5.80;2.90;;;15.90;99.90;;;;;;5116488;28;20457;-62
2022/07/03 08:31:29;;;;;;;3.80;2.40;;;15.90;99.90;;;;;;5121333;28;20939;-64
2022/07/03 08:34:00;;;;;;;3.00;2.33;;;15.90;99.90;;;;;;5123645;28;20508;-64
2022/07/03 08:36:32;;;;;;;2.97;2.07;;;16.00;99.90;;;;;;5093193;28;20447;-62
2022/07/03 08:39:03;;;;;;;2.70;2.30;;;16.00;99.90;;;;;;5103921;28;20461;-64
2022/07/03 08:41:37;;;;;;;3.13;2.30;;;16.00;99.90;;;;;;5102328;28;20449;-64
2022/07/03 08:44:09;;;;;;;4.53;2.77;;;16.00;99.90;;;;;;5090331;28;20427;-64
2022/07/03 08:46:41;;;;;;;2.93;2.37;;;16.10;99.90;;;;;;5123550;28;20464;-64
2022/07/03 08:49:12;;;;;;;2.70;2.30;;;16.10;99.90;;;;;;5124170;28;20469;-62
2022/07/03 08:51:46;;;;;;;2.40;2.20;;;16.20;99.90;;;;;;5122714;28;20465;-64
2022/07/03 08:54:17;;;;;;;3.43;2.60;;;16.20;99.90;;;;;;5122097;28;20451;-62
2022/07/03 08:56:48;;;;;;;3.47;2.13;;;16.10;99.90;;;;;;5117453;28;20465;-62
2022/07/03 08:59:20;;;;;;;3.43;2.70;;;16.20;99.90;;;;;;5103901;28;20446;-62
2022/07/03 09:01:51;;;;;;;2.93;2.17;;;16.20;99.90;;;;;;5115788;28;20453;-63
2022/07/03 09:04:23;;;;;;;3.53;2.47;;;16.20;99.90;;;;;;5121325;28;20950;-64
2022/07/03 09:06:56;;;;;;;3.50;2.73;;;16.20;99.90;;;;;;5102065;28;20446;-62
2022/07/03 09:09:27;;;;;;;2.20;1.87;;;16.30;99.90;;;;;;5103161;28;20454;-63
2022/07/03 09:11:58;;;;;;;4.03;3.17;;;16.20;99.90;;;;;;5102977;28;20477;-63
2022/07/03 09:14:28;;;;;;;2.63;1.70;;;16.20;99.90;;;;;;5106303;28;20464;-62
2022/07/03 09:16:59;;;;;;;3.80;2.60;;;16.20;99.90;;;;;;5123030;28;20445;-62
2022/07/03 09:19:43;;;;;;;2.80;2.30;;;16.30;99.90;;;;;;5123837;28;20519;-62
2022/07/03 09:22:33;;;;;;;4.00;2.80;;;16.30;99.90;;;;;;5105968;28;20431;-62
2022/07/03 09:25:10;;;;;;;2.53;2.13;;;16.20;99.90;;;;;;5102638;28;20966;-62
2022/07/03 09:27:51;;;;;;;2.70;2.50;;;16.30;99.90;;;;;;5114772;28;20446;-62
2022/07/03 09:30:22;;;;;;;2.50;2.30;;;16.30;99.90;;;;;;5116867;28;20854;-63
2022/07/03 09:32:53;;;;;;;2.63;2.40;;;16.40;99.90;;;;;;5102937;28;20466;-63
2022/07/03 09:35:25;;;;;;;3.37;2.93;;;16.30;99.90;;;;;;5101918;28;20684;-63
2022/07/03 09:37:58;;;;;;;2.00;1.90;;;16.30;99.90;;;;;;5103465;28;20453;-63
2022/07/03 09:40:48;;;;;;;3.53;2.93;;;16.30;99.90;;;;;;5104152;28;20447;-63
2022/07/03 09:43:25;;;;;;;2.83;2.17;;;16.30;99.90;;;;;;5100107;28;20465;-63
2022/07/03 09:45:57;;;;;;;3.80;2.70;;;16.30;99.90;;;;;;5102830;28;20446;-63
2022/07/03 09:48:30;;;;;;;2.63;2.07;;;16.30;99.90;;;;;;5104705;28;20469;-63
2022/07/03 09:51:19;;;;;;;3.10;2.23;;;16.30;99.90;;;;;;5116621;28;20482;-63
2022/07/03 09:53:53;;;;;;;2.90;2.30;;;16.30;99.90;;;;;;5103095;28;20461;-63
2022/07/03 09:56:28;;;;;;;3.67;2.07;;;16.30;99.90;;;;;;5102989;28;20486;-63
2022/07/03 09:59:10;;;;;;;2.90;2.23;;;16.30;99.90;;;;;;5103540;28;20506;-63
2022/07/03 10:01:41;;;;;;;2.17;1.97;;;16.30;99.90;;;;;;5109437;28;20472;-63
2022/07/03 10:04:14;;;;;;;4.30;2.50;;;16.30;99.90;;;;;;5123017;28;20446;-63
2022/07/03 10:06:49;;;;;;;3.00;2.23;;;16.30;99.90;;;;;;5117687;28;20464;-63
2022/07/03 10:09:23;;;;;;;3.20;2.50;;;16.20;99.90;;;;;;5090565;28;20936;-63
2022/07/03 10:11:54;;;;;;;3.10;2.37;;;16.20;99.90;;;;;;5102737;28;20458;-63
2022/07/03 10:14:26;;;;;;;2.63;1.80;;;16.30;99.90;;;;;;5103063;28;20519;-63
2022/07/03 10:16:59;;;;;;;3.23;2.30;;;16.20;99.90;;;;;;5107012;28;20562;-63
2022/07/03 10:19:31;;;;;;;2.20;2.00;;;16.20;99.90;;;;;;5122378;28;20439;-62
2022/07/03 10:22:04;;;;;;;2.50;2.20;;;16.20;99.90;;;;;;5111469;28;20458;-62
2022/07/03 10:24:37;;;;;;;3.03;2.10;;;16.20;99.90;;;;;;5122590;28;20490;-63
2022/07/03 10:27:09;;;;;;;2.37;1.77;;;16.20;99.90;;;;;;5122391;28;20457;-63
2022/07/03 10:29:41;;;;;;;3.80;2.40;;;16.20;99.90;;;;;;5106485;28;20448;-63
2022/07/03 10:32:13;;;;;;;2.40;1.97;;;16.20;99.90;;;;;;5103904;28;20478;-64
2022/07/03 10:34:43;;;;;;;2.93;2.03;;;16.20;99.90;;;;;;5118445;28;20445;-63
2022/07/03 10:37:19;;;;;;;3.00;2.10;;;16.20;99.90;;;;;;5117607;28;20486;-63
2022/07/03 10:44:45;;;;;;;3.20;1.93;;;16.20;99.90;;;;;;5120520;28;20970;-63
2022/07/03 10:46:11;;;;;;;2.50;2.13;;;16.20;99.90;;;;;;5112957;28;20453;-64
2022/07/03 10:49:08;;;;;;;3.10;2.40;;;16.20;99.90;;;;;;5117256;28;20699;-64
2022/07/03 10:51:56;;;;;;;2.73;1.90;;;16.10;99.90;;;;;;5121520;28;20766;-64
2022/07/03 10:54:28;;;;;;;2.73;2.53;;;16.10;99.90;;;;;;5097517;28;20446;-63
2022/07/03 10:57:20;;;;;;;2.43;2.23;;;16.20;99.90;;;;;;5125623;28;20488;-63
2022/07/03 11:00:22;;;;;;;3.60;2.37;;;16.10;99.90;;;;;;5107660;28;21287;-63
2022/07/03 11:02:54;;;;;;;2.93;2.27;;;16.20;99.90;;;;;;5117054;28;20445;-64
2022/07/03 11:05:37;;;;;;;2.50;2.17;;;16.10;99.90;;;;;;5104428;28;20437;-62
2022/07/03 11:08:13;;;;;;;3.30;2.87;;;16.10;99.90;;;;;;5112593;28;20469;-64
2022/07/03 11:10:45;;;;;;;2.10;1.90;;;16.20;99.90;;;;;;5124871;28;20430;-64
2022/07/03 11:13:21;;;;;;;3.00;2.40;;;16.20;99.90;;;;;;5118354;28;20458;-62
2022/07/03 11:15:55;;;;;;;3.30;2.50;;;16.20;99.90;;;;;;5108068;28;20448;-62
2022/07/03 11:18:31;;;;;;;2.53;2.20;;;16.20;99.90;;;;;;5115068;28;20442;-64
2022/07/03 11:21:33;;;;;;;3.27;2.43;;;16.20;99.90;;;;;;5105639;28;20413;-62
2022/07/03 11:24:49;;;;;;;4.10;2.60;;;16.20;99.90;;;;;;5105628;28;20438;-62
2022/07/03 11:27:26;;;;;;;2.53;2.33;;;16.10;99.90;;;;;;5022722;28;20477;-64
2022/07/03 11:30:00;;;;;;;3.30;2.30;;;16.20;99.90;;;;;;5019792;28;20575;-62
2022/07/03 11:32:57;;;;;;;3.50;2.13;;;16.20;99.90;;;;;;5023163;28;20463;-62
2022/07/03 11:36:00;;;;;;;2.13;1.83;;;16.20;99.90;;;;;;5024201;28;20436;-62
2022/07/03 11:38:32;;;;;;;2.73;2.00;;;16.10;99.90;;;;;;4974389;28;20483;-62
2022/07/03 11:41:03;;;;;;;1.83;1.70;;;16.10;99.90;;;;;;4987455;28;20459;-62
2022/07/03 11:43:34;;;;;;;6.70;2.50;;;16.10;99.90;;;;;;4998923;28;20789;-62
2022/07/03 11:46:06;;;;;;;2.17;1.97;;;16.10;99.90;;;;;;5001118;28;20453;-62
2022/07/03 11:48:37;;;;;;;2.07;1.87;;;16.10;99.90;;;;;;4986421;28;20426;-62
2022/07/03 11:51:08;;;;;;;4.37;2.77;;;16.10;99.90;;;;;;4982197;28;20449;-62
2022/07/03 11:53:40;;;;;;;2.07;1.87;;;16.10;99.90;;;;;;4983598;28;20451;-62
2022/07/03 11:56:12;;;;;;;3.03;2.27;;;16.10;99.90;;;;;;4985700;28;20955;-62
2022/07/03 11:58:45;;;;;;;2.93;1.87;;;16.20;99.90;;;;;;4991059;28;20869;-62
2022/07/03 12:04:12;;;;;;;1.73;1.57;;;16.20;99.90;;;;;;5141344;27;20550;-62
2022/07/03 12:06:45;;;;;;;2.67;2.07;;;16.20;99.90;;;;;;5138184;27;20468;-64
2022/07/03 12:09:22;;;;;;;3.20;1.83;;;16.20;99.90;;;;;;5136905;28;20427;-62
2022/07/03 12:11:57;;;;;;;2.50;2.30;;;16.20;99.90;;;;;;5140841;27;20449;-62
2022/07/03 12:14:38;;;;;;;2.60;1.93;;;16.20;99.90;;;;;;5140751;27;20495;-62
2022/07/03 12:17:11;;;;;;;2.93;2.20;;;16.20;99.90;;;;;;5140672;27;20449;-63
2022/07/03 12:19:49;;;;;;;2.73;2.53;;;16.20;99.90;;;;;;5140816;27;20501;-63
2022/07/03 12:22:27;;;;;;;2.93;1.93;;;16.20;99.90;;;;;;5139514;27;20482;-63
2022/07/03 12:25:00;;;;;;;1.97;1.70;;;16.10;99.90;;;;;;5141010;27;20479;-63
2022/07/03 12:27:33;;;;;;;2.57;1.60;;;16.10;99.90;;;;;;5140295;27;20455;-63
2022/07/03 12:30:05;;;;;;;3.10;1.83;;;16.10;99.90;;;;;;5139470;27;20459;-63
2022/07/03 12:32:37;;;;;;;2.63;2.00;;;16.10;99.90;;;;;;5140070;28;20491;-63
2022/07/03 12:35:10;;;;;;;3.00;2.30;;;16.10;99.90;;;;;;5139296;27;20455;-62
2022/07/03 12:37:44;;;;;;;3.40;2.10;;;16.00;99.90;;;;;;5106564;28;20456;-63
2022/07/03 12:40:16;;;;;;;2.87;2.33;;;16.00;99.90;;;;;;5138605;28;20433;-63
2022/07/03 12:42:48;;;;;;;2.33;2.13;;;16.00;99.90;;;;;;5117423;27;20487;-63
2022/07/03 12:45:20;;;;;;;2.70;2.50;;;16.00;99.90;;;;;;5132855;28;20453;-63
2022/07/03 12:48:00;;;;;;;2.60;1.80;;;16.00;99.90;;;;;;5115858;27;20449;-63
2022/07/03 12:53:35;;;;;;;2.50;2.27;;;16.10;99.90;;;;;;5157332;27;20568;-63
2022/07/03 12:56:07;;;;;;;2.90;2.30;;;16.00;99.90;;;;;;5111786;28;20453;-64
2022/07/03 13:01:30;;;;;;;2.93;2.53;;;15.90;99.90;;;;;;5140823;27;20849;-63
2022/07/03 13:04:01;;;;;;;3.40;2.20;;;15.90;99.90;;;;;;5140814;28;20526;-63
2022/07/03 13:06:32;;;;;;;2.10;1.80;;;16.00;99.90;;;;;;5139419;27;20449;-63
2022/07/03 13:09:06;;;;;;;2.90;2.60;;;16.00;99.90;;;;;;5132788;28;20448;-64
2022/07/03 13:11:38;;;;;;;3.60;2.47;;;16.10;99.90;;;;;;5134925;27;20985;-64
2022/07/03 13:14:12;;;;;;;2.37;1.70;;;16.10;99.90;;;;;;5140943;27;20477;-64
2022/07/03 13:16:45;;;;;;;3.00;2.43;;;16.00;99.90;;;;;;5140536;27;20742;-63
2022/07/03 13:19:16;;;;;;;2.60;1.90;;;16.10;99.90;;;;;;5140268;28;20520;-62
2022/07/03 13:21:48;;;;;;;2.57;2.23;;;16.10;99.90;;;;;;5138651;27;20459;-62
2022/07/03 13:24:21;;;;;;;2.17;1.97;;;16.00;99.90;;;;;;5140631;27;20469;-62
2022/07/03 13:26:53;;;;;;;4.03;2.73;;;15.90;99.90;;;;;;5140277;27;20479;-62
2022/07/03 13:29:25;;;;;;;2.87;2.10;;;15.90;99.90;;;;;;5139633;28;20542;-65
2022/07/03 13:31:56;;;;;;;2.70;2.00;;;15.90;99.90;;;;;;5139599;28;20563;-62
2022/07/03 13:34:27;;;;;;;3.93;2.53;;;16.00;99.90;;;;;;5140022;27;20456;-62
2022/07/03 13:36:58;;;;;;;3.53;2.57;;;16.00;99.90;;;;;;5139395;27;20457;-62
2022/07/03 13:39:30;;;;;;;4.20;2.50;;;15.90;99.90;;;;;;5139758;27;20468;-62